SLCO/CIJ METAR and TAF weather

Enter ICAO airport designator
Station Type Date Time Source
SLCO METAR 2019/05/25 15:00 UTC NOAA

SLCO 251500Z 16005KT 9999 BKN080 24/18 Q1017


Station Type Date Time Source
SLCO Decoded METAR 2019/05/25 15:00 UTC NOAA

Cobija, Bolivia (SLCO) 11-02S 068-47W 260M
May 25, 2019 - 11:00 AM EDT / 2019.05.25 1500 UTC
Wind: from the SSE (160 degrees) at 6 MPH (5 KT):0
Visibility: greater than 7 mile(s):0
Sky conditions: mostly cloudy
Temperature: 75 F (24 C)
Dew Point: 64 F (18 C)
Relative Humidity: 69%
Pressure (altimeter): 30.03 in. Hg (1017 hPa)
ob: SLCO 251500Z 16005KT 9999 BKN080 24/18 Q1017
cycle: 15

Station Type Date Time Source
SLCO TAF 2019/05/25 12:23 UTC NOAA

TAF SLCO 251000Z 2512/2612 16009KT 9999 SCT017 BKN080 TX25/2520Z TN16 /2611Z
BECMG 2522/2602 00000KT BKN012 BKN070

Example: see airport list